TAF Text Data
IDs:
Format:
Raw Decoded Include METAR

Data at: 1144 UTC 25 Oct 2020

KTLH 251120Z 2512/2612 00000KT 1/2SM FG VV001
  TEMPO 2512/2514 00000KT 2SM BR BKN004
  FM251500 33004KT P6SM SCT025
  FM260600 00000KT 6SM BR BKN040